createdAt,value
2023-08-15T00:00:44.443Z,1007.63
2023-08-15T00:01:44.386Z,1007.59
2023-08-15T00:02:44.446Z,1007.59
2023-08-15T00:03:44.408Z,1007.54
2023-08-15T00:04:44.345Z,1007.56
2023-08-15T00:05:44.339Z,1007.55
2023-08-15T00:06:44.327Z,1007.52
2023-08-15T00:07:44.317Z,1007.53
2023-08-15T00:08:44.339Z,1007.49
2023-08-15T00:09:44.322Z,1007.55
2023-08-15T00:10:44.283Z,1007.56
2023-08-15T00:11:44.274Z,1007.54
2023-08-15T00:12:44.268Z,1007.51
2023-08-15T00:13:44.319Z,1007.52
2023-08-15T00:14:44.240Z,1007.46
2023-08-15T00:15:44.230Z,1007.43
2023-08-15T00:16:44.264Z,1007.43
2023-08-15T00:17:44.229Z,1007.37
2023-08-15T00:18:44.237Z,1007.33
2023-08-15T00:19:44.186Z,1007.34
2023-08-15T00:20:44.187Z,1007.28
2023-08-15T00:21:44.156Z,1007.27
2023-08-15T00:22:44.177Z,1007.30
2023-08-15T00:23:44.133Z,1007.27
2023-08-15T00:24:44.198Z,1007.25
2023-08-15T00:25:44.142Z,1007.20
2023-08-15T00:26:44.105Z,1007.16
2023-08-15T00:27:44.095Z,1007.16
2023-08-15T00:28:44.088Z,1007.15
2023-08-15T00:29:44.099Z,1007.19
2023-08-15T00:30:44.086Z,1007.19
2023-08-15T00:31:44.052Z,1007.19
2023-08-15T00:32:44.059Z,1007.22
2023-08-15T00:33:44.058Z,1007.26
2023-08-15T00:34:44.034Z,1007.26
2023-08-15T00:35:44.005Z,1007.34
2023-08-15T00:36:43.992Z,1007.38
2023-08-15T00:37:43.983Z,1007.39
2023-08-15T00:38:43.995Z,1007.38
2023-08-15T00:39:43.986Z,1007.35
2023-08-15T00:40:43.946Z,1007.38
2023-08-15T00:41:43.963Z,1007.41
2023-08-15T00:42:43.923Z,1007.43
2023-08-15T00:43:43.919Z,1007.44
2023-08-15T00:44:43.971Z,1007.36
2023-08-15T00:45:43.895Z,1007.37
2023-08-15T00:46:43.945Z,1007.35
2023-08-15T00:47:43.891Z,1007.33
2023-08-15T00:48:43.970Z,1007.37
2023-08-15T00:49:43.885Z,1007.32
2023-08-15T00:50:43.841Z,1007.33
2023-08-15T00:51:43.830Z,1007.32
2023-08-15T00:52:43.812Z,1007.33
2023-08-15T00:53:43.826Z,1007.27
2023-08-15T00:54:43.808Z,1007.25
2023-08-15T00:55:43.795Z,1007.25
2023-08-15T00:56:43.766Z,1007.21
2023-08-15T00:57:43.837Z,1007.22
2023-08-15T00:58:43.744Z,1007.16
2023-08-15T00:59:43.789Z,1007.11
2023-08-15T01:00:43.729Z,1007.08
2023-08-15T01:01:43.748Z,1007.04
2023-08-15T01:02:43.793Z,1007.03
2023-08-15T01:03:43.782Z,1007.01
2023-08-15T01:04:43.728Z,1007.02
2023-08-15T01:05:43.683Z,1007.02
2023-08-15T01:06:43.659Z,1007.01
2023-08-15T01:07:43.649Z,1006.98
2023-08-15T01:08:43.648Z,1006.94
2023-08-15T01:09:43.658Z,1006.87
2023-08-15T01:10:43.613Z,1006.84
2023-08-15T01:11:43.609Z,1006.83
2023-08-15T01:12:43.598Z,1006.77
2023-08-15T01:13:43.606Z,1006.76
2023-08-15T01:14:43.593Z,1006.75
2023-08-15T01:15:43.555Z,1006.75
2023-08-15T01:16:43.590Z,1006.74
2023-08-15T01:17:43.564Z,1006.74
2023-08-15T01:18:43.521Z,1006.74
2023-08-15T01:19:43.834Z,1006.76
2023-08-15T01:20:43.521Z,1006.74
2023-08-15T01:21:43.494Z,1006.71
2023-08-15T01:22:43.477Z,1006.68
2023-08-15T01:23:43.472Z,1006.66
2023-08-15T01:24:43.481Z,1006.61
2023-08-15T01:25:43.474Z,1006.62
2023-08-15T01:26:43.435Z,1006.61
2023-08-15T01:27:43.421Z,1006.63
2023-08-15T01:28:43.408Z,1006.67
2023-08-15T01:29:43.443Z,1006.75
2023-08-15T01:30:43.386Z,1006.78
2023-08-15T01:31:43.401Z,1006.84
2023-08-15T01:32:43.386Z,1006.87
2023-08-15T01:33:43.347Z,1006.90
2023-08-15T01:34:43.357Z,1006.90
2023-08-15T01:35:43.327Z,1006.95
2023-08-15T01:36:43.318Z,1006.97
2023-08-15T01:37:43.305Z,1007.03
2023-08-15T01:38:43.305Z,1007.09
2023-08-15T01:39:43.372Z,1007.09
2023-08-15T01:40:43.271Z,1007.16
2023-08-15T01:41:43.258Z,1007.19
2023-08-15T01:42:43.264Z,1007.20
2023-08-15T01:43:43.241Z,1007.23
2023-08-15T01:44:43.264Z,1007.21
2023-08-15T01:45:43.297Z,1007.22
2023-08-15T01:46:43.210Z,1007.25
2023-08-15T01:47:43.226Z,1007.29
2023-08-15T01:48:43.188Z,1007.30
2023-08-15T01:49:43.173Z,1007.28
2023-08-15T01:50:43.217Z,1007.25
2023-08-15T01:51:43.146Z,1007.26
2023-08-15T01:52:43.135Z,1007.26
2023-08-15T01:53:43.160Z,1007.25
2023-08-15T01:54:43.121Z,1007.24
2023-08-15T01:55:43.099Z,1007.22
2023-08-15T01:56:43.088Z,1007.19
2023-08-15T01:57:43.092Z,1007.22
2023-08-15T01:58:43.080Z,1007.23
2023-08-15T01:59:43.082Z,1007.25
2023-08-15T02:00:43.069Z,1007.28
2023-08-15T02:01:43.130Z,1007.23
2023-08-15T02:02:43.156Z,1007.24
2023-08-15T02:03:43.034Z,1007.21
2023-08-15T02:04:43.007Z,1007.18
2023-08-15T02:05:43.020Z,1007.15
2023-08-15T02:06:42.990Z,1007.11
2023-08-15T02:07:42.976Z,1007.11
2023-08-15T02:08:42.988Z,1007.11
2023-08-15T02:09:42.967Z,1007.12
2023-08-15T02:10:42.992Z,1007.15
2023-08-15T02:11:42.940Z,1007.17
2023-08-15T02:12:42.926Z,1007.23
2023-08-15T02:13:42.907Z,1007.21
2023-08-15T02:14:42.903Z,1007.23
2023-08-15T02:15:42.957Z,1007.16
2023-08-15T02:16:42.875Z,1007.15
2023-08-15T02:17:42.917Z,1007.14
2023-08-15T02:18:42.843Z,1007.14
2023-08-15T02:19:42.861Z,1007.13
2023-08-15T02:20:42.842Z,1007.14
2023-08-15T02:21:42.811Z,1007.15
2023-08-15T02:22:42.798Z,1007.21
2023-08-15T02:23:42.798Z,1007.19
2023-08-15T02:24:42.776Z,1007.24
2023-08-15T02:25:42.779Z,1007.24
2023-08-15T02:26:42.772Z,1007.25
2023-08-15T02:27:42.743Z,1007.21
2023-08-15T02:28:42.746Z,1007.21
2023-08-15T02:29:42.733Z,1007.24
2023-08-15T02:30:42.748Z,1007.30
2023-08-15T02:31:42.707Z,1007.36
2023-08-15T02:32:42.725Z,1007.40
2023-08-15T02:33:42.735Z,1007.45
2023-08-15T02:34:42.666Z,1007.45
2023-08-15T02:35:42.696Z,1007.50
2023-08-15T02:36:42.640Z,1007.60
2023-08-15T02:37:42.638Z,1007.65
2023-08-15T02:38:42.671Z,1007.62
2023-08-15T02:39:42.611Z,1007.56
2023-08-15T02:40:42.645Z,1007.49
2023-08-15T02:41:42.592Z,1007.51
2023-08-15T02:42:42.575Z,1007.49
2023-08-15T02:43:42.574Z,1007.50
2023-08-15T02:44:42.551Z,1007.50
2023-08-15T02:45:42.539Z,1007.46
2023-08-15T02:46:42.599Z,1007.44
2023-08-15T02:47:42.576Z,1007.47
2023-08-15T02:48:42.521Z,1007.55
2023-08-15T02:49:42.527Z,1007.54
2023-08-15T02:50:42.486Z,1007.58
2023-08-15T02:51:42.495Z,1007.63
2023-08-15T02:52:42.482Z,1007.60
2023-08-15T02:53:42.450Z,1007.60
2023-08-15T02:54:42.451Z,1007.62
2023-08-15T02:55:42.433Z,1007.55
2023-08-15T02:56:42.436Z,1007.50
2023-08-15T02:57:42.424Z,1007.52
2023-08-15T02:58:42.412Z,1007.50
2023-08-15T02:59:42.389Z,1007.47
2023-08-15T03:00:42.407Z,1007.43
2023-08-15T03:01:42.435Z,1007.42
2023-08-15T03:02:42.545Z,1007.43
2023-08-15T03:03:42.343Z,1007.42
2023-08-15T03:04:42.336Z,1007.46
2023-08-15T03:05:42.350Z,1007.42
2023-08-15T03:06:42.313Z,1007.43
2023-08-15T03:07:42.300Z,1007.43
2023-08-15T03:08:42.333Z,1007.52
2023-08-15T03:09:42.272Z,1007.51
2023-08-15T03:10:42.275Z,1007.52
2023-08-15T03:11:42.295Z,1007.51
2023-08-15T03:12:42.255Z,1007.49
2023-08-15T03:13:42.238Z,1007.43
2023-08-15T03:14:42.223Z,1007.35
2023-08-15T03:15:42.235Z,1007.19
2023-08-15T03:16:42.236Z,1007.19
2023-08-15T03:17:42.254Z,1007.23
2023-08-15T03:18:42.181Z,1007.26
2023-08-15T03:19:42.168Z,1007.43
2023-08-15T03:20:42.168Z,1007.55
2023-08-15T03:21:42.168Z,1007.63
2023-08-15T03:22:42.162Z,1007.69
2023-08-15T03:23:42.130Z,1007.76
2023-08-15T03:24:42.125Z,1007.71
2023-08-15T03:25:42.102Z,1007.75
2023-08-15T03:26:42.103Z,1007.85
2023-08-15T03:27:42.083Z,1007.89
2023-08-15T03:28:42.072Z,1008.00
2023-08-15T03:29:42.081Z,1008.05
2023-08-15T03:30:42.119Z,1008.12
2023-08-15T03:31:42.097Z,1008.11
2023-08-15T03:32:42.101Z,1008.10
2023-08-15T03:33:42.018Z,1008.07
2023-08-15T03:34:42.007Z,1008.05
2023-08-15T03:35:42.005Z,1008.00
2023-08-15T03:36:42.007Z,1007.91
2023-08-15T03:37:41.996Z,1007.88
2023-08-15T03:38:41.963Z,1007.90
2023-08-15T03:39:41.984Z,1007.89
2023-08-15T03:40:41.941Z,1007.88
2023-08-15T03:41:41.933Z,1007.81
2023-08-15T03:42:41.936Z,1007.83
2023-08-15T03:43:41.908Z,1007.82
2023-08-15T03:44:41.897Z,1007.81
2023-08-15T03:45:41.947Z,1007.78
2023-08-15T03:46:41.996Z,1007.76
2023-08-15T03:47:41.929Z,1007.77
2023-08-15T03:48:41.856Z,1007.69
2023-08-15T03:49:41.842Z,1007.55
2023-08-15T03:50:41.830Z,1007.49
2023-08-15T03:51:47.161Z,1007.36
2023-08-15T03:52:42.827Z,1007.35
2023-08-15T03:53:41.823Z,1007.35
2023-08-15T03:54:41.789Z,1007.34
2023-08-15T03:55:41.782Z,1007.28
2023-08-15T03:56:41.770Z,1007.19
2023-08-15T03:57:41.769Z,1007.18
2023-08-15T03:58:41.742Z,1007.09
2023-08-15T03:59:41.740Z,1007.03
2023-08-15T04:00:41.731Z,1007.03
2023-08-15T04:01:41.802Z,1007.01
2023-08-15T04:02:41.729Z,1006.99
2023-08-15T04:03:41.726Z,1006.97
2023-08-15T04:04:41.681Z,1007.02
2023-08-15T04:05:41.667Z,1007.07
2023-08-15T04:06:41.656Z,1007.26
2023-08-15T04:07:41.663Z,1007.41
2023-08-15T04:08:41.639Z,1007.59
2023-08-15T04:09:41.639Z,1007.75
2023-08-15T04:10:41.624Z,1007.88
2023-08-15T04:11:41.600Z,1008.02
2023-08-15T04:12:41.589Z,1008.05
2023-08-15T04:13:41.621Z,1008.12
2023-08-15T04:14:41.568Z,1008.10
2023-08-15T04:15:41.557Z,1008.16
2023-08-15T04:16:41.621Z,1008.22
2023-08-15T04:17:41.565Z,1008.23
2023-08-15T04:18:41.535Z,1008.24
2023-08-15T04:19:41.510Z,1008.27
2023-08-15T04:20:41.507Z,1008.28
2023-08-15T04:21:41.492Z,1008.29
2023-08-15T04:22:41.498Z,1008.32
2023-08-15T04:23:41.470Z,1008.31
2023-08-15T04:24:41.479Z,1008.26
2023-08-15T04:25:41.581Z,1008.25
2023-08-15T04:26:41.438Z,1008.23
2023-08-15T04:27:41.430Z,1008.23
2023-08-15T04:28:41.435Z,1008.23
2023-08-15T04:29:41.407Z,1008.29
2023-08-15T04:30:41.424Z,1008.38
2023-08-15T04:31:41.501Z,1008.47
2023-08-15T04:32:41.385Z,1008.50
2023-08-15T04:33:41.381Z,1008.46
2023-08-15T04:34:41.357Z,1008.46
2023-08-15T04:35:41.347Z,1008.42
2023-08-15T04:36:41.329Z,1008.39
2023-08-15T04:37:41.317Z,1008.42
2023-08-15T04:38:41.305Z,1008.45
2023-08-15T04:39:41.313Z,1008.46
2023-08-15T04:40:41.424Z,1008.42
2023-08-15T04:41:41.305Z,1008.42
2023-08-15T04:42:41.264Z,1008.43
2023-08-15T04:43:41.248Z,1008.42
2023-08-15T04:44:41.239Z,1008.39
2023-08-15T04:45:41.276Z,1008.42
2023-08-15T04:46:41.227Z,1008.41
2023-08-15T04:47:41.266Z,1008.42
2023-08-15T04:48:41.199Z,1008.41
2023-08-15T04:49:41.191Z,1008.47
2023-08-15T04:50:41.199Z,1008.50
2023-08-15T04:51:41.199Z,1008.56
2023-08-15T04:52:41.169Z,1008.59
2023-08-15T04:53:41.139Z,1008.62
2023-08-15T04:54:41.141Z,1008.66
2023-08-15T04:55:41.141Z,1008.67
2023-08-15T04:56:41.107Z,1008.72
2023-08-15T04:57:41.122Z,1008.71
2023-08-15T04:58:41.098Z,1008.76
2023-08-15T04:59:41.074Z,1008.78
2023-08-15T05:00:41.060Z,1008.77
2023-08-15T05:01:41.115Z,1008.73
2023-08-15T05:02:41.060Z,1008.66
2023-08-15T05:03:41.027Z,1008.57
2023-08-15T05:04:41.017Z,1008.51
2023-08-15T05:05:41.067Z,1008.51
2023-08-15T05:06:41.012Z,1008.44
2023-08-15T05:07:40.984Z,1008.44
2023-08-15T05:08:40.984Z,1008.45
2023-08-15T05:09:40.962Z,1008.46
2023-08-15T05:10:40.969Z,1008.41
2023-08-15T05:11:40.969Z,1008.41
2023-08-15T05:12:40.939Z,1008.33
2023-08-15T05:13:40.950Z,1008.22
2023-08-15T05:14:40.908Z,1008.07
2023-08-15T05:15:40.940Z,1008.04
2023-08-15T05:16:40.888Z,1008.06
2023-08-15T05:17:40.937Z,1008.07
2023-08-15T05:18:40.861Z,1008.17
2023-08-15T05:19:40.866Z,1008.30
2023-08-15T05:20:40.841Z,1008.43
2023-08-15T05:21:40.831Z,1008.58
2023-08-15T05:22:40.831Z,1008.70
2023-08-15T05:23:40.823Z,1008.76
2023-08-15T05:24:40.802Z,1008.80
2023-08-15T05:25:40.788Z,1008.81
2023-08-15T05:26:40.886Z,1008.77
2023-08-15T05:27:40.762Z,1008.77
2023-08-15T05:28:40.785Z,1008.77
2023-08-15T05:29:40.772Z,1008.77
2023-08-15T05:30:40.730Z,1008.79
2023-08-15T05:31:40.747Z,1008.79
2023-08-15T05:32:40.744Z,1008.80
2023-08-15T05:33:40.710Z,1008.82
2023-08-15T05:34:40.681Z,1008.85
2023-08-15T05:35:40.684Z,1008.90
2023-08-15T05:36:40.666Z,1008.88
2023-08-15T05:37:40.650Z,1008.88
2023-08-15T05:38:40.660Z,1008.88
2023-08-15T05:39:40.632Z,1008.89
2023-08-15T05:40:40.706Z,1008.91
2023-08-15T05:41:40.608Z,1008.92
2023-08-15T05:42:40.607Z,1008.90
2023-08-15T05:43:40.616Z,1008.94
2023-08-15T05:44:40.568Z,1008.94
2023-08-15T05:45:40.595Z,1008.94
2023-08-15T05:46:40.591Z,1008.93
2023-08-15T05:47:40.565Z,1008.96
2023-08-15T05:48:40.548Z,1008.98
2023-08-15T05:49:40.562Z,1009.03
2023-08-15T05:50:40.533Z,1009.03
2023-08-15T05:51:40.500Z,1009.05
2023-08-15T05:52:40.482Z,1009.04
2023-08-15T05:53:40.488Z,1009.11
2023-08-15T05:54:40.463Z,1009.11
2023-08-15T05:55:40.451Z,1009.11
2023-08-15T05:56:40.436Z,1009.06
2023-08-15T05:57:40.425Z,1009.06
2023-08-15T05:58:40.436Z,1009.07
2023-08-15T05:59:40.415Z,1009.11
2023-08-15T06:00:40.419Z,1009.16
2023-08-15T06:01:40.413Z,1009.17
2023-08-15T06:02:40.538Z,1009.23
2023-08-15T06:03:51.872Z,1009.29
2023-08-15T06:04:41.424Z,1009.29
2023-08-15T06:05:40.343Z,1009.23
2023-08-15T06:06:40.326Z,1009.19
2023-08-15T06:07:40.316Z,1009.07
2023-08-15T06:08:40.324Z,1009.03
2023-08-15T06:09:40.294Z,1009.00
2023-08-15T06:10:40.279Z,1009.03
2023-08-15T06:11:40.286Z,1009.05
2023-08-15T06:12:40.256Z,1009.09
2023-08-15T06:13:40.264Z,1009.11
2023-08-15T06:14:40.247Z,1009.14
2023-08-15T06:15:40.230Z,1009.16
2023-08-15T06:16:40.236Z,1009.16
2023-08-15T06:17:40.351Z,1009.15
2023-08-15T06:18:40.246Z,1009.15
2023-08-15T06:19:40.183Z,1009.17
2023-08-15T06:20:40.174Z,1009.19
2023-08-15T06:21:40.162Z,1009.23
2023-08-15T06:22:40.155Z,1009.24
2023-08-15T06:23:40.197Z,1009.26
2023-08-15T06:24:40.126Z,1009.26
2023-08-15T06:25:40.119Z,1009.27
2023-08-15T06:26:40.121Z,1009.24
2023-08-15T06:27:40.095Z,1009.25
2023-08-15T06:28:40.102Z,1009.23
2023-08-15T06:29:40.101Z,1009.28
2023-08-15T06:30:40.082Z,1009.24
2023-08-15T06:31:40.054Z,1009.23
2023-08-15T06:32:40.265Z,1009.24
2023-08-15T06:33:40.158Z,1009.22
2023-08-15T06:34:40.022Z,1009.25
2023-08-15T06:35:40.017Z,1009.22
2023-08-15T06:36:39.999Z,1009.32
2023-08-15T06:37:39.986Z,1009.29
2023-08-15T06:38:40.020Z,1009.30
2023-08-15T06:39:39.963Z,1009.33
2023-08-15T06:40:39.957Z,1009.33
2023-08-15T06:41:39.948Z,1009.34
2023-08-15T06:42:39.930Z,1009.32
2023-08-15T06:43:39.927Z,1009.37
2023-08-15T06:44:39.921Z,1009.34
2023-08-15T06:45:39.895Z,1009.32
2023-08-15T06:46:39.906Z,1009.28
2023-08-15T06:47:39.914Z,1009.34
2023-08-15T06:48:39.862Z,1009.32
2023-08-15T06:49:39.883Z,1009.37
2023-08-15T06:50:39.837Z,1009.36
2023-08-15T06:51:39.836Z,1009.39
2023-08-15T06:52:39.834Z,1009.39
2023-08-15T06:53:39.840Z,1009.40
2023-08-15T06:54:39.806Z,1009.41
2023-08-15T06:55:39.784Z,1009.45
2023-08-15T06:56:39.771Z,1009.45
2023-08-15T06:57:40.557Z,1009.44
2023-08-15T06:58:39.770Z,1009.49
2023-08-15T06:59:39.875Z,1009.52
2023-08-15T07:00:39.754Z,1009.51
2023-08-15T07:01:39.726Z,1009.51
2023-08-15T07:02:40.140Z,1009.56
2023-08-15T07:03:39.850Z,1009.59
2023-08-15T07:04:39.695Z,1009.60
2023-08-15T07:05:39.723Z,1009.59
2023-08-15T07:06:39.662Z,1009.60
2023-08-15T07:07:39.654Z,1009.61
2023-08-15T07:08:39.642Z,1009.65
2023-08-15T07:09:39.657Z,1009.59
2023-08-15T07:10:39.614Z,1009.62
2023-08-15T07:11:39.607Z,1009.61
2023-08-15T07:12:39.600Z,1009.62
2023-08-15T07:13:39.586Z,1009.60
2023-08-15T07:14:39.595Z,1009.57
2023-08-15T07:15:39.563Z,1009.55
2023-08-15T07:16:39.576Z,1009.53
2023-08-15T07:17:39.620Z,1009.52
2023-08-15T07:18:39.530Z,1009.50
2023-08-15T07:19:39.544Z,1009.51
2023-08-15T07:20:40.124Z,1009.53
2023-08-15T07:21:39.516Z,1009.51
2023-08-15T07:22:39.479Z,1009.49
2023-08-15T07:23:39.486Z,1009.48
2023-08-15T07:24:39.527Z,1009.47
2023-08-15T07:25:39.466Z,1009.43
2023-08-15T07:26:39.789Z,1009.46
2023-08-15T07:27:39.432Z,1009.43
2023-08-15T07:28:39.415Z,1009.39
2023-08-15T07:29:39.427Z,1009.40
2023-08-15T07:30:39.391Z,1009.44
2023-08-15T07:31:39.430Z,1009.46
2023-08-15T07:32:39.392Z,1009.46
2023-08-15T07:33:39.364Z,1009.45
2023-08-15T07:34:39.363Z,1009.46
2023-08-15T07:35:39.339Z,1009.48
2023-08-15T07:36:39.329Z,1009.47
2023-08-15T07:37:39.351Z,1009.45
2023-08-15T07:38:39.311Z,1009.51
2023-08-15T07:39:39.305Z,1009.53
2023-08-15T07:40:39.281Z,1009.54
2023-08-15T07:41:39.278Z,1009.65
2023-08-15T07:42:39.263Z,1009.75
2023-08-15T07:43:39.251Z,1009.79
2023-08-15T07:44:39.266Z,1009.82
2023-08-15T07:45:39.267Z,1009.79
2023-08-15T07:46:39.219Z,1009.79
2023-08-15T07:47:39.233Z,1009.77
2023-08-15T07:48:39.218Z,1009.75
2023-08-15T07:49:39.557Z,1009.74
2023-08-15T07:50:39.225Z,1009.82
2023-08-15T07:51:39.166Z,1009.84
2023-08-15T07:52:39.152Z,1009.87
2023-08-15T07:53:39.188Z,1009.87
2023-08-15T07:54:39.145Z,1009.88
2023-08-15T07:55:39.119Z,1009.84
2023-08-15T07:56:39.117Z,1009.80
2023-08-15T07:57:39.112Z,1009.81
2023-08-15T07:58:39.089Z,1009.78
2023-08-15T07:59:39.103Z,1009.70
2023-08-15T08:00:39.065Z,1009.73
2023-08-15T08:01:39.073Z,1009.74
2023-08-15T08:02:39.090Z,1009.74
2023-08-15T08:03:39.038Z,1009.80
2023-08-15T08:04:39.053Z,1009.83
2023-08-15T08:05:39.048Z,1009.85
2023-08-15T08:06:40.918Z,1009.82
2023-08-15T08:07:38.994Z,1009.85
2023-08-15T08:08:38.982Z,1009.84
2023-08-15T08:09:39.040Z,1009.85
2023-08-15T08:10:38.963Z,1009.86
2023-08-15T08:11:38.951Z,1009.84
2023-08-15T08:12:38.968Z,1009.84
2023-08-15T08:13:38.940Z,1009.85
2023-08-15T08:14:45.001Z,1009.90
2023-08-15T08:15:39.902Z,1009.89
2023-08-15T08:16:38.897Z,1009.94
2023-08-15T08:17:39.066Z,1009.94
2023-08-15T08:18:38.877Z,1009.95
2023-08-15T08:19:38.867Z,1009.92
2023-08-15T08:20:38.879Z,1009.93
2023-08-15T08:21:38.847Z,1009.95
2023-08-15T08:22:38.829Z,1009.93
2023-08-15T08:23:38.828Z,1009.93
2023-08-15T08:24:38.809Z,1009.97
2023-08-15T08:25:38.828Z,1009.95
2023-08-15T08:26:38.784Z,1009.97
2023-08-15T08:27:38.780Z,1009.93
2023-08-15T08:28:38.757Z,1009.89
2023-08-15T08:29:38.748Z,1009.90
2023-08-15T08:30:38.819Z,1009.90
2023-08-15T08:31:38.807Z,1009.89
2023-08-15T08:32:38.743Z,1009.98
2023-08-15T08:33:38.709Z,1009.95
2023-08-15T08:34:38.691Z,1010.03
2023-08-15T08:35:38.705Z,1010.05
2023-08-15T08:36:38.679Z,1010.07
2023-08-15T08:37:38.687Z,1010.09
2023-08-15T08:38:38.650Z,1010.10
2023-08-15T08:39:38.640Z,1010.11
2023-08-15T08:40:38.650Z,1010.11
2023-08-15T08:41:38.686Z,1010.08
2023-08-15T08:42:38.605Z,1010.05
2023-08-15T08:43:38.601Z,1010.03
2023-08-15T08:44:38.587Z,1009.97
2023-08-15T08:45:38.628Z,1009.95
2023-08-15T08:46:38.578Z,1009.97
2023-08-15T08:47:38.555Z,1010.01
2023-08-15T08:48:39.300Z,1010.04
2023-08-15T08:49:38.529Z,1010.04
2023-08-15T08:50:38.541Z,1010.06
2023-08-15T08:51:38.525Z,1010.10
2023-08-15T08:52:38.517Z,1010.10
2023-08-15T08:53:38.497Z,1010.13
2023-08-15T08:54:55.951Z,1010.09
2023-08-15T08:55:39.488Z,1010.12
2023-08-15T08:56:38.455Z,1010.10
2023-08-15T08:57:38.496Z,1010.09
2023-08-15T08:58:38.438Z,1010.10
2023-08-15T08:59:38.420Z,1010.08
2023-08-15T09:00:38.445Z,1010.10
2023-08-15T09:01:38.502Z,1010.08
2023-08-15T09:02:38.474Z,1010.12
2023-08-15T09:03:38.437Z,1010.05
2023-08-15T09:04:38.364Z,1010.05
2023-08-15T09:05:38.393Z,1010.07
2023-08-15T09:06:38.350Z,1010.17
2023-08-15T09:07:38.331Z,1010.19
2023-08-15T09:08:38.321Z,1010.16
2023-08-15T09:09:38.312Z,1010.18
2023-08-15T09:10:38.361Z,1010.10
2023-08-15T09:11:38.290Z,1010.13
2023-08-15T09:12:38.298Z,1010.12
2023-08-15T09:13:38.340Z,1010.13
2023-08-15T09:14:38.262Z,1010.14
2023-08-15T09:15:38.361Z,1010.18
2023-08-15T09:16:38.239Z,1010.18
2023-08-15T09:17:38.275Z,1010.18
2023-08-15T09:18:38.208Z,1010.17
2023-08-15T09:19:38.215Z,1010.21
2023-08-15T09:20:38.222Z,1010.25
2023-08-15T09:21:38.183Z,1010.29
2023-08-15T09:22:38.166Z,1010.24
2023-08-15T09:23:38.161Z,1010.25
2023-08-15T09:24:38.149Z,1010.24
2023-08-15T09:25:38.299Z,1010.27
2023-08-15T09:26:38.154Z,1010.33
2023-08-15T09:27:38.151Z,1010.35
2023-08-15T09:28:38.117Z,1010.38
2023-08-15T09:29:38.111Z,1010.42
2023-08-15T09:30:38.131Z,1010.41
2023-08-15T09:31:38.128Z,1010.46
2023-08-15T09:32:38.099Z,1010.46
2023-08-15T09:33:38.082Z,1010.52
2023-08-15T09:34:38.500Z,1010.49
2023-08-15T09:35:49.161Z,1010.53
2023-08-15T09:36:39.180Z,1010.53
2023-08-15T09:37:38.009Z,1010.55
2023-08-15T09:38:38.019Z,1010.54
2023-08-15T09:39:37.983Z,1010.50
2023-08-15T09:40:38.002Z,1010.51
2023-08-15T09:41:37.960Z,1010.47
2023-08-15T09:42:37.958Z,1010.54
2023-08-15T09:43:37.948Z,1010.55
2023-08-15T09:44:37.937Z,1010.58
2023-08-15T09:45:37.956Z,1010.59
2023-08-15T09:46:37.944Z,1010.59
2023-08-15T09:47:37.978Z,1010.58
2023-08-15T09:48:37.922Z,1010.55
2023-08-15T09:49:37.887Z,1010.54
2023-08-15T09:50:37.949Z,1010.54
2023-08-15T09:51:37.861Z,1010.51
2023-08-15T09:52:37.842Z,1010.51
2023-08-15T09:53:37.831Z,1010.55
2023-08-15T09:54:37.818Z,1010.60
2023-08-15T09:55:37.820Z,1010.60
2023-08-15T09:56:37.900Z,1010.64
2023-08-15T09:57:37.786Z,1010.62
2023-08-15T09:58:37.813Z,1010.58
2023-08-15T09:59:37.772Z,1010.59
2023-08-15T10:00:37.767Z,1010.60
2023-08-15T10:01:37.799Z,1010.63
2023-08-15T10:02:37.759Z,1010.61
2023-08-15T10:03:37.753Z,1010.69
2023-08-15T10:04:37.708Z,1010.63
2023-08-15T10:05:37.704Z,1010.64
2023-08-15T10:06:37.712Z,1010.66
2023-08-15T10:07:37.703Z,1010.72
2023-08-15T10:08:37.674Z,1010.74
2023-08-15T10:09:37.652Z,1010.78
2023-08-15T10:10:37.644Z,1010.75
2023-08-15T10:11:37.630Z,1010.78
2023-08-15T10:12:37.653Z,1010.75
2023-08-15T10:13:37.611Z,1010.77
2023-08-15T10:14:37.606Z,1010.74
2023-08-15T10:15:37.612Z,1010.75
2023-08-15T10:16:37.686Z,1010.69
2023-08-15T10:17:37.777Z,1010.72
2023-08-15T10:18:37.626Z,1010.75
2023-08-15T10:19:37.544Z,1010.79
2023-08-15T10:20:37.588Z,1010.84
2023-08-15T10:21:37.534Z,1010.84
2023-08-15T10:22:37.517Z,1010.84
2023-08-15T10:23:37.525Z,1010.81
2023-08-15T10:24:37.503Z,1010.84
2023-08-15T10:25:37.486Z,1010.84
2023-08-15T10:26:37.471Z,1010.84
2023-08-15T10:27:37.457Z,1010.87
2023-08-15T10:28:37.461Z,1010.89
2023-08-15T10:29:37.435Z,1010.87
2023-08-15T10:30:37.712Z,1010.81
2023-08-15T10:31:37.411Z,1010.80
2023-08-15T10:32:37.524Z,1010.88
2023-08-15T10:33:37.442Z,1010.89
2023-08-15T10:34:37.382Z,1010.92
2023-08-15T10:35:37.369Z,1010.91
2023-08-15T10:36:37.362Z,1010.90
2023-08-15T10:37:37.345Z,1010.89
2023-08-15T10:38:37.335Z,1010.86
2023-08-15T10:39:37.374Z,1010.86
2023-08-15T10:40:37.312Z,1010.90
2023-08-15T10:41:37.397Z,1010.85
2023-08-15T10:42:37.293Z,1010.81
2023-08-15T10:43:37.330Z,1010.80
2023-08-15T10:44:37.268Z,1010.79
2023-08-15T10:45:37.291Z,1010.79
2023-08-15T10:46:37.410Z,1010.82
2023-08-15T10:47:37.279Z,1010.85
2023-08-15T10:48:41.115Z,1010.84
2023-08-15T10:49:38.276Z,1010.84
2023-08-15T10:50:37.204Z,1010.82
2023-08-15T10:51:37.217Z,1010.78
2023-08-15T10:52:37.181Z,1010.75
2023-08-15T10:53:37.171Z,1010.75
2023-08-15T10:54:37.161Z,1010.75
2023-08-15T10:55:37.173Z,1010.74
2023-08-15T10:56:37.165Z,1010.77
2023-08-15T10:57:37.129Z,1010.77
2023-08-15T10:58:37.115Z,1010.80
2023-08-15T10:59:37.114Z,1010.82
2023-08-15T11:00:37.094Z,1010.85
2023-08-15T11:01:37.135Z,1010.83
2023-08-15T11:02:37.106Z,1010.86
2023-08-15T11:03:37.136Z,1010.89
2023-08-15T11:04:37.048Z,1010.88
2023-08-15T11:05:37.087Z,1010.89
2023-08-15T11:06:37.042Z,1010.90
2023-08-15T11:07:37.037Z,1010.93
2023-08-15T11:08:37.002Z,1010.93
2023-08-15T11:09:36.993Z,1010.97
2023-08-15T11:10:36.994Z,1010.98
2023-08-15T11:11:37.015Z,1010.94
2023-08-15T11:12:36.962Z,1010.91
2023-08-15T11:13:36.950Z,1010.96
2023-08-15T11:14:36.936Z,1010.94
2023-08-15T11:15:36.930Z,1010.94
2023-08-15T11:16:36.933Z,1010.96
2023-08-15T11:17:36.954Z,1010.98
2023-08-15T11:18:36.911Z,1010.96
2023-08-15T11:19:36.885Z,1010.95
2023-08-15T11:20:36.896Z,1010.90
2023-08-15T11:21:36.885Z,1010.88
2023-08-15T11:22:36.850Z,1010.92
2023-08-15T11:23:36.880Z,1010.95
2023-08-15T11:24:36.830Z,1010.94
2023-08-15T11:25:36.828Z,1010.93
2023-08-15T11:26:36.816Z,1010.95
2023-08-15T11:27:36.794Z,1010.92
2023-08-15T11:28:36.803Z,1010.95
2023-08-15T11:29:36.774Z,1010.93
2023-08-15T11:30:36.781Z,1010.96
2023-08-15T11:31:36.803Z,1010.94
2023-08-15T11:32:36.795Z,1010.95
2023-08-15T11:33:36.754Z,1010.95
2023-08-15T11:34:36.723Z,1010.98
2023-08-15T11:35:36.743Z,1010.91
2023-08-15T11:36:36.710Z,1010.88
2023-08-15T11:37:36.720Z,1010.86
2023-08-15T11:38:36.732Z,1010.91
2023-08-15T11:39:36.679Z,1010.90
2023-08-15T11:40:36.665Z,1010.86
2023-08-15T11:41:36.871Z,1010.87
2023-08-15T11:42:36.638Z,1010.89
2023-08-15T11:43:36.630Z,1010.90
2023-08-15T11:44:36.635Z,1010.91
2023-08-15T11:45:36.621Z,1010.91
2023-08-15T11:46:51.447Z,1010.94
2023-08-15T11:47:37.704Z,1010.96
2023-08-15T11:48:36.586Z,1011.00
2023-08-15T11:49:45.821Z,1011.04
2023-08-15T11:50:44.086Z,1011.02
2023-08-15T11:51:37.540Z,1011.00
2023-08-15T11:52:36.531Z,1011.03
2023-08-15T11:53:36.634Z,1011.03
2023-08-15T11:54:36.523Z,1011.02
2023-08-15T11:55:36.509Z,1011.01
2023-08-15T11:56:36.485Z,1011.01
2023-08-15T11:57:36.551Z,1011.01
2023-08-15T11:58:36.468Z,1010.99
2023-08-15T11:59:36.474Z,1011.01
2023-08-15T12:00:36.443Z,1011.03
2023-08-15T12:01:36.500Z,1011.00
2023-08-15T12:02:36.427Z,1010.99
2023-08-15T12:03:36.464Z,1010.97
2023-08-15T12:04:36.420Z,1010.97
2023-08-15T12:05:36.386Z,1010.95